AirNav   Duncan Aviation - Near you to keep you 
flying
 
 1177 users online  

MY80 Rosenberg Airport
Ceylon, Minnesota, USA

GOING TO CEYLON?


FAA INFORMATION EFFECTIVE 15 JULY 2021

Location

FAA Identifier: MY80
Lat/Long: 43-31-19.8410N 094-34-56.9210W
43-31.330683N 094-34.948683W
43.5221781,-94.5824781
(estimated)
Elevation: 1255 ft. / 383 m (estimated)
Variation: 05E (1985)
From city: 3 miles SE of CEYLON, MN
Time zone: UTC -5 (UTC -6 during Standard Time)
Zip code: 56121

Airport Operations

Airport use: Private use. Permission required prior to landing
Activation date: 02/1987
Control tower: no
ARTCC: MINNEAPOLIS CENTER
FSS: FORT DODGE FLIGHT SERVICE STATION
Attendance: UNATNDD
Wind indicator: yes
Segmented circle: no

Airport Communications

WX ASOS at EST (10 nm SW): 121.425 (712-362-7250)
WX AWOS-3PT at FRM (10 nm NE): 120.025 (507-238-1562)
WX AWOS-3 at MJQ (19 nm NW): 118.1 (507-847-5810)

Nearby radio navigation aids

VOR radial/distance  VOR name  Freq  Var
SPWr046/34.6SPENCER VOR/DME110.0005E

 
NDB name  Hdg/Dist  Freq  Var  ID
MONTZ251/11.942004EFQ ..-. --.-
PUFF032/12.334501EPUF .--. ..- ..-.
EMMETSBURG008/25.941004EEGQ . --. --.-

Airport Services

Runway Information

Runway 10/28

Dimensions: 2500 x 90 ft. / 762 x 27 m
Surface: turf
RUNWAY 10  RUNWAY 28
Traffic pattern: leftleft
Displaced threshold: 500 ft.no
Obstructions: 30 ft. trees, 500 ft. from runwaynone

Airport Ownership and Management from official FAA records

Ownership: Privately-owned
Owner: GERALD A. ROSENBERG
1425 30TH ST
CEYLON, MN 56121
Phone 507-632-4246
Manager: GERALD A. ROSENBERG
1425 30TH ST
CEYLON, MN 56121
Phone 507-632-4246

Additional Remarks

EMERGENCY LANDING ONLY.
DO NOT CHART PER MINNESOTA DEPARTMENT OF TRANSPORTATION
FOR CD CTC MINNEAPOLIS ARTCC AT 651-463-5588.

Instrument Procedures

There are no published instrument procedures at MY80.

Some nearby airports with instrument procedures:

KEST - Estherville Municipal Airport (10 nm SW)
KFRM - Fairmont Municipal Airport (10 nm NE)
KMJQ - Jackson Municipal Airport (19 nm NW)
KSBU - Blue Earth Municipal Airport (22 nm E)
KEGQ - Emmetsburg Municipal Airport (26 nm S)
 
Loc | Ops | Rwys | IFR | FBO | Links
Com | Nav | Svcs | Stats | Notes
Area around MY80 (Rosenberg Airport)
 
Road maps at: MapQuest Bing Google
 
Aerial photo
No photo
 
Sectional chart

 
Airport distance calculator
Flying to Rosenberg Airport? Find the distance to fly.

From to MY80

Sunrise and sunset
Times for 28-Jul-2021
 Local
(UTC-5)
 Zulu
(UTC)
Morning civil twilight05:3110:31
Sunrise06:0511:05
Sunset20:4501:45
Evening civil twilight21:1802:18

Current date and time
Zulu (UTC)  28-Jul-2021 23:04:55
Local (UTC-5)  28-Jul-2021 18:04:55
 
METAR
KFRM 
10nm NE 
282256Z AUTO 22010KT 10SM CLR 34/24 A2993 RMK AO2 SLP126 T03390239
KEST 
10nm SW 
282252Z AUTO 21013G22KT 10SM CLR 33/24 A2993 RMK AO2 SLP124 T03330239
KMJQ 
18nm W 
282255Z AUTO 23012G17KT 10SM CLR 33/22 A2995 RMK AO2 PWINO
TAF
NOTAMs
Click for the latest NOTAMs
NOTAMs are issued by the DoD/FAA and will open in a separate window not controlled by AirNav.

 

 
 

Would you like to see your business listed on this page?

 If your business provides an interesting product or service to pilots, flight crews, aircraft, or users of the Rosenberg Airport, you should consider listing it here.  To start the listing process, click on the button below
 
Add a business
 

Other Pages about Rosenberg Airport

Update a link
 
Copyright © AirNav, LLC. All rights reserved. Privacy Policy  Contact